Time;durP1;ratioP1;P1;durP2;ratioP2;P2;SDS_P1;SDS_P2;PMS_P1;PMS_P2;Temp;Humidity;BMP_temperature;BMP_pressure;BME280_temperature;BME280_humidity;BME280_pressure;Samples;Min_cycle;Max_cycle;Signal;HPM_P1;HPM_P2
2023/01/20 00:01:05;;;;;;;30.20;10.10;;;;;;;8.64;98.25;99088.03;107721;1256;60438;-76
2023/01/20 00:03:31;;;;;;;24.60;10.00;;;;;;;8.61;98.66;99078.52;106169;1251;61650;-76
2023/01/20 00:05:58;;;;;;;28.10;10.20;;;;;;;8.57;98.69;99085.52;105920;1256;76026;-77
2023/01/20 00:08:25;;;;;;;24.10;9.80;;;;;;;8.58;98.42;99096.83;105697;1256;71156;-76
2023/01/20 00:10:52;;;;;;;30.70;12.60;;;;;;;8.58;98.07;99089.55;105480;1256;72934;-76
2023/01/20 00:13:19;;;;;;;30.10;9.60;;;;;;;8.51;98.57;99103.50;105587;1256;62675;-75
2023/01/20 00:15:45;;;;;;;19.90;8.60;;;;;;;8.52;98.63;99098.17;105657;1251;62187;-79
2023/01/20 00:18:13;;;;;;;28.70;10.40;;;;;;;8.55;98.45;99102.13;105875;1251;74922;-79
2023/01/20 00:20:40;;;;;;;29.50;10.90;;;;;;;8.51;98.53;99099.96;106246;1257;71615;-77
2023/01/20 00:23:07;;;;;;;34.40;10.80;;;;;;;8.46;98.78;99100.98;105905;1252;72353;-78
2023/01/20 00:25:37;;;;;;;29.60;11.60;;;;;;;8.50;98.79;99088.68;105438;1255;63286;-82
2023/01/20 00:28:04;;;;;;;26.60;9.50;;;;;;;8.49;98.64;99093.77;105928;1250;61422;-77
2023/01/20 00:30:30;;;;;;;29.10;9.90;;;;;;;8.46;98.65;99102.92;106038;1251;73161;-82
2023/01/20 00:32:57;;;;;;;24.10;10.50;;;;;;;8.50;98.49;99110.09;105936;1256;71239;-77
2023/01/20 00:35:24;;;;;;;27.70;11.10;;;;;;;8.50;98.65;99102.12;105946;1254;74860;-80
2023/01/20 00:37:51;;;;;;;34.80;10.50;;;;;;;8.46;98.85;99106.95;106057;1253;60654;-78
2023/01/20 00:40:18;;;;;;;32.20;10.80;;;;;;;8.48;98.72;99110.33;107052;1251;60509;-77
2023/01/20 00:42:45;;;;;;;26.10;10.60;;;;;;;8.52;98.44;99106.15;108274;1250;75991;-76
2023/01/20 00:45:12;;;;;;;23.70;11.20;;;;;;;8.52;98.60;99106.87;107952;1255;70633;-79
2023/01/20 00:47:39;;;;;;;31.50;11.80;;;;;;;8.50;98.28;99108.90;106174;1253;75016;-79
2023/01/20 00:50:06;;;;;;;28.00;8.90;;;;;;;8.49;98.39;99120.05;106094;1256;64166;-79
2023/01/20 00:52:33;;;;;;;29.40;11.40;;;;;;;8.55;97.95;99111.63;107123;1250;60830;-81
2023/01/20 00:55:00;;;;;;;28.70;10.90;;;;;;;8.56;97.68;99101.84;108413;1250;74642;-82
2023/01/20 00:57:26;;;;;;;29.00;9.50;;;;;;;8.51;98.05;99104.86;106790;1256;70974;-82
2023/01/20 00:59:53;;;;;;;28.30;9.90;;;;;;;8.53;97.99;99107.06;106114;1253;74717;-81
2023/01/20 01:02:20;;;;;;;28.80;11.30;;;;;;;8.58;97.66;99109.41;105808;1252;62357;-79
2023/01/20 01:04:50;;;;;;;24.60;9.90;;;;;;;8.55;97.61;99098.80;105885;1256;62467;-80
2023/01/20 01:07:17;;;;;;;25.10;9.80;;;;;;;8.48;97.51;99103.08;105940;1251;73828;-78
2023/01/20 01:09:44;;;;;;;32.80;10.30;;;;;;;8.52;97.87;99101.58;105691;1260;70866;-78
2023/01/20 01:12:11;;;;;;;27.20;10.40;;;;;;;8.53;97.38;99098.67;105974;1253;73867;-77
2023/01/20 01:14:37;;;;;;;29.90;9.90;;;;;;;8.44;97.76;99099.92;105844;1254;62174;-76
2023/01/20 01:17:04;;;;;;;27.20;8.80;;;;;;;8.44;97.75;99094.15;105562;1253;60360;-78
2023/01/20 01:19:31;;;;;;;30.60;11.20;;;;;;;8.47;97.74;99091.71;105535;1250;74705;-80
2023/01/20 01:21:58;;;;;;;26.70;9.10;;;;;;;8.44;97.78;99092.54;105851;1253;68793;-79
2023/01/20 01:24:25;;;;;;;25.50;9.70;;;;;;;8.41;97.47;99101.16;106376;1252;75126;-80
2023/01/20 01:26:53;;;;;;;25.50;10.40;;;;;;;8.44;97.79;99100.08;106221;1253;60449;-80
2023/01/20 01:29:20;;;;;;;25.00;10.20;;;;;;;8.42;97.86;99104.98;106374;1252;60930;-82
2023/01/20 01:31:46;;;;;;;26.00;9.10;;;;;;;8.38;97.77;99100.77;106876;1250;75974;-80
2023/01/20 01:34:14;;;;;;;21.70;9.60;;;;;;;8.43;97.58;99100.25;106349;1251;70983;-79
2023/01/20 01:36:41;;;;;;;27.90;9.50;;;;;;;8.44;97.10;99102.36;105894;1251;74729;-78
2023/01/20 01:39:07;;;;;;;24.10;9.50;;;;;;;8.39;97.74;99107.39;105651;1250;61226;-78
2023/01/20 01:41:34;;;;;;;28.60;9.50;;;;;;;8.32;97.72;99111.46;106011;1251;61413;-79
2023/01/20 01:44:07;;;;;;;30.30;9.90;;;;;;;8.35;97.51;99108.17;107534;1253;76145;-82
2023/01/20 01:46:34;;;;;;;27.10;11.80;;;;;;;8.34;97.44;99100.84;107343;1250;71392;-80
2023/01/20 01:49:24;;;;;;;24.90;9.20;;;;;;;8.27;97.47;99094.86;108420;1251;73589;-79
2023/01/20 01:51:58;;;;;;;22.30;9.50;;;;;;;8.28;97.31;99096.90;107962;1251;60612;-79
2023/01/20 01:54:28;;;;;;;30.30;10.50;;;;;;;8.28;97.41;99102.86;106118;1256;60511;-80
2023/01/20 01:56:55;;;;;;;23.90;9.70;;;;;;;8.21;97.61;99095.40;106079;1251;75908;-79
2023/01/20 01:59:22;;;;;;;25.60;9.50;;;;;;;8.15;97.70;99099.02;106013;1256;70528;-77
2023/01/20 02:01:50;;;;;;;27.40;8.30;;;;;;;8.18;97.78;99103.52;105747;1257;73754;-77
2023/01/20 02:04:22;;;;;;;22.60;9.10;;;;;;;8.18;97.70;99108.65;105523;1258;61195;-77
2023/01/20 02:06:54;;;;;;;26.00;9.50;;;;;;;8.10;97.66;99105.09;105863;1253;62463;-78
2023/01/20 02:09:22;;;;;;;28.20;9.90;;;;;;;8.04;97.97;99111.52;105428;1253;74539;-77
2023/01/20 02:11:51;;;;;;;19.30;8.10;;;;;;;8.09;97.56;99115.61;105888;1253;72731;-79
2023/01/20 02:14:23;;;;;;;24.70;9.00;;;;;;;8.10;97.88;99109.19;105863;1253;74719;-78
2023/01/20 02:20:33;;;;;;;21.90;8.70;;;;;;;7.99;97.99;99105.89;102641;1295;601128;-77
2023/01/20 02:23:03;;;;;;;24.00;9.20;;;;;;;8.01;97.87;99113.39;104986;1272;60180;-76
2023/01/20 02:26:05;;;;;;;23.30;9.60;;;;;;;7.95;97.95;99110.39;105022;1272;61331;-75
2023/01/20 02:28:51;;;;;;;23.20;8.20;;;;;;;7.88;97.99;99110.81;104934;1273;74284;-75
2023/01/20 02:31:46;;;;;;;29.50;9.90;;;;;;;7.92;97.96;99113.55;106459;1272;71627;-75
2023/01/20 02:34:25;;;;;;;21.50;9.00;;;;;;;7.89;98.06;99126.42;104926;1267;170530;-77
2023/01/20 02:36:58;;;;;;;23.60;8.30;;;;;;;7.79;98.34;99125.84;104756;1267;60736;-76
2023/01/20 02:39:43;;;;;;;26.80;7.20;;;;;;;7.76;98.55;99127.22;104764;1265;59344;-79
2023/01/20 02:42:15;;;;;;;20.60;9.00;;;;;;;7.78;98.36;99129.10;105082;1264;74157;-79
2023/01/20 02:44:45;;;;;;;22.30;8.90;;;;;;;7.74;98.57;99128.78;104850;1263;71707;-80
2023/01/20 02:47:13;;;;;;;18.60;8.20;;;;;;;7.66;99.04;99137.80;104791;1266;74935;-79
2023/01/20 02:49:43;;;;;;;21.40;8.50;;;;;;;7.67;98.91;99145.27;105326;1277;63083;-77
2023/01/20 02:52:15;;;;;;;24.80;9.60;;;;;;;7.69;99.03;99142.86;105350;1264;62386;-76
2023/01/20 02:54:46;;;;;;;28.00;9.60;;;;;;;7.64;99.08;99143.55;105979;1264;75260;-77
2023/01/20 02:57:15;;;;;;;23.10;9.00;;;;;;;7.58;99.29;99142.54;105803;1269;72209;-76
2023/01/20 02:59:44;;;;;;;27.80;8.50;;;;;;;7.61;99.25;99150.88;105435;1269;73793;-74
2023/01/20 03:02:17;;;;;;;28.40;10.00;;;;;;;7.63;99.29;99155.45;105247;1271;62146;-78
2023/01/20 03:04:56;;;;;;;28.40;9.70;;;;;;;7.56;99.27;99150.55;104962;1264;59693;-79
2023/01/20 03:07:24;;;;;;;24.60;8.10;;;;;;;7.54;99.22;99153.55;105306;1271;72356;-79
2023/01/20 03:09:53;;;;;;;21.30;9.20;;;;;;;7.58;99.41;99158.57;105789;1269;71174;-79
2023/01/20 03:12:26;;;;;;;25.30;10.50;;;;;;;7.55;99.46;99155.07;105048;1264;72658;-79
2023/01/20 03:14:52;;;;;;;22.90;9.00;;;;;;;7.51;99.48;99158.69;105068;1268;61004;-79
2023/01/20 03:17:19;;;;;;;30.80;10.80;;;;;;;7.55;99.34;99172.67;104942;1271;61881;-79
2023/01/20 03:19:46;;;;;;;24.50;9.90;;;;;;;7.57;99.09;99178.77;105055;1270;75273;-79
2023/01/20 03:22:13;;;;;;;31.30;10.20;;;;;;;7.52;99.19;99177.16;105042;1269;70263;-80
2023/01/20 03:24:40;;;;;;;23.20;8.10;;;;;;;7.48;99.44;99172.90;104843;1273;72249;-80
2023/01/20 03:27:07;;;;;;;27.50;8.80;;;;;;;7.53;99.04;99175.88;104894;1270;62678;-77
2023/01/20 03:29:34;;;;;;;17.50;7.50;;;;;;;7.56;99.23;99175.23;105598;1264;61059;-77
2023/01/20 03:32:01;;;;;;;22.80;9.00;;;;;;;7.52;99.36;99181.06;108615;1264;73965;-78
2023/01/20 03:34:30;;;;;;;22.60;7.90;;;;;;;7.49;99.15;99175.73;108816;1257;71045;-81
2023/01/20 03:36:57;;;;;;;18.70;8.10;;;;;;;7.56;98.68;99182.63;108304;1256;72788;-80
2023/01/20 03:39:24;;;;;;;23.00;7.20;;;;;;;7.61;98.32;99173.81;107228;1258;59771;-80
2023/01/20 03:42:01;;;;;;;21.90;7.60;;;;;;;7.57;98.49;99160.45;106883;1260;61318;-78
2023/01/20 03:44:58;;;;;;;19.70;8.40;;;;;;;7.56;98.42;99167.43;106353;1257;75339;-78
2023/01/20 03:47:39;;;;;;;23.90;10.10;;;;;;;7.58;98.33;99178.33;105926;1254;72249;-80
2023/01/20 03:50:08;;;;;;;28.30;9.40;;;;;;;7.52;98.55;99182.19;105587;1257;75001;-80
2023/01/20 03:52:40;;;;;;;19.80;8.60;;;;;;;7.50;98.36;99180.10;105848;1254;64414;-80
2023/01/20 03:55:31;;;;;;;27.70;10.20;;;;;;;7.53;98.43;99175.30;105916;1254;61380;-80
2023/01/20 03:58:07;;;;;;;23.80;8.50;;;;;;;7.49;98.59;99181.10;106064;1254;73429;-82
2023/01/20 04:00:36;;;;;;;21.10;8.30;;;;;;;7.42;98.75;99180.02;106685;1254;72429;-76
2023/01/20 04:03:08;;;;;;;22.90;8.40;;;;;;;7.46;98.66;99189.44;107922;1254;72941;-80
2023/01/20 04:05:36;;;;;;;24.20;9.80;;;;;;;7.48;98.19;99189.45;107808;1254;61474;-78
2023/01/20 04:08:06;;;;;;;25.40;9.60;;;;;;;7.42;98.50;99196.59;107014;1254;62503;-78
2023/01/20 04:10:32;;;;;;;25.70;8.90;;;;;;;7.38;98.35;99197.73;105939;1258;75025;-77
2023/01/20 04:12:59;;;;;;;19.10;7.60;;;;;;;7.40;98.39;99198.50;105778;1254;69510;-77
2023/01/20 04:15:26;;;;;;;20.00;9.80;;;;;;;7.40;98.54;99212.68;105719;1254;75105;-77
2023/01/20 04:17:56;;;;;;;20.70;8.70;;;;;;;7.33;98.59;99220.62;105344;1254;62131;-81
2023/01/20 04:20:23;;;;;;;22.50;8.70;;;;;;;7.35;98.94;99237.30;106191;1254;62233;-79
2023/01/20 04:22:52;;;;;;;20.70;8.70;;;;;;;7.36;98.74;99235.10;105605;1254;75501;-77
2023/01/20 04:25:29;;;;;;;22.10;8.90;;;;;;;7.32;98.73;99235.02;105731;1254;72716;-77
2023/01/20 04:27:56;;;;;;;21.50;8.00;;;;;;;7.35;98.79;99237.73;105830;1254;74357;-76
2023/01/20 04:30:23;;;;;;;24.30;8.60;;;;;;;7.40;98.54;99247.08;105535;1254;62655;-77
2023/01/20 04:32:50;;;;;;;20.30;7.90;;;;;;;7.38;98.79;99249.33;105916;1253;60570;-75
2023/01/20 04:35:18;;;;;;;26.70;8.10;;;;;;;7.35;98.82;99251.78;105887;1254;74086;-74
2023/01/20 04:37:45;;;;;;;19.00;7.90;;;;;;;7.40;98.37;99247.70;105620;1254;72602;-74
2023/01/20 04:40:12;;;;;;;20.40;8.60;;;;;;;7.41;98.20;99248.30;105829;1254;74712;-75
2023/01/20 04:42:38;;;;;;;20.50;8.70;;;;;;;7.36;98.45;99253.30;105888;1255;61456;-76
2023/01/20 04:45:06;;;;;;;20.10;8.00;;;;;;;7.32;98.25;99254.86;105859;1259;62522;-75
2023/01/20 04:47:32;;;;;;;21.90;8.00;;;;;;;7.37;98.06;99256.17;105815;1255;74243;-75
2023/01/20 04:49:59;;;;;;;19.40;7.80;;;;;;;7.36;97.96;99257.09;105806;1258;71499;-76
2023/01/20 04:52:26;;;;;;;21.10;8.40;;;;;;;7.28;97.96;99261.98;105608;1257;74786;-77
2023/01/20 04:54:53;;;;;;;20.10;8.60;;;;;;;7.22;98.35;99273.19;105785;1254;62187;-78
2023/01/20 04:57:20;;;;;;;22.50;7.60;;;;;;;7.24;98.45;99266.79;105318;1254;60920;-75
2023/01/20 04:59:47;;;;;;;24.50;9.70;;;;;;;7.27;98.14;99269.77;105757;1254;75225;-74
2023/01/20 05:02:14;;;;;;;23.70;9.20;;;;;;;7.23;98.20;99279.42;105895;1260;71248;-77
2023/01/20 05:04:41;;;;;;;25.50;9.30;;;;;;;7.16;98.44;99286.13;106356;1254;73354;-75
2023/01/20 05:07:08;;;;;;;26.60;11.10;;;;;;;7.20;98.12;99295.80;106854;1253;62727;-81
2023/01/20 05:09:34;;;;;;;21.50;9.20;;;;;;;7.22;98.14;99302.92;108021;1253;61269;-80
2023/01/20 05:12:02;;;;;;;18.50;9.20;;;;;;;7.19;98.12;99293.41;107866;1254;74057;-83
2023/01/20 05:14:28;;;;;;;22.10;8.40;;;;;;;7.15;98.37;99291.74;105885;1254;72470;-80
2023/01/20 05:16:55;;;;;;;21.90;8.50;;;;;;;7.18;98.24;99288.78;106339;1257;71780;-83
2023/01/20 05:19:22;;;;;;;22.60;9.20;;;;;;;7.22;98.13;99301.23;107676;1254;60322;-79
2023/01/20 05:21:49;;;;;;;25.10;10.00;;;;;;;7.19;98.09;99302.59;108994;1253;61127;-80
2023/01/20 05:24:16;;;;;;;19.60;9.10;;;;;;;7.14;98.21;99310.59;109024;1253;72179;-79
2023/01/20 05:26:42;;;;;;;18.60;9.30;;;;;;;7.20;97.85;99307.02;108533;1254;69015;-78
2023/01/20 05:29:09;;;;;;;20.50;9.00;;;;;;;7.23;97.84;99312.70;107884;1259;72995;-77
2023/01/20 05:31:41;;;;;;;23.40;10.60;;;;;;;7.19;98.01;99319.80;106683;1254;61110;-79
2023/01/20 05:34:09;;;;;;;24.40;9.90;;;;;;;7.15;97.99;99323.54;106480;1254;59548;-81
2023/01/20 05:36:36;;;;;;;22.70;11.00;;;;;;;7.21;97.90;99327.04;106675;1254;73848;-80
2023/01/20 05:39:03;;;;;;;27.70;11.90;;;;;;;7.19;97.78;99335.63;106263;1258;70814;-80
2023/01/20 05:41:30;;;;;;;19.40;9.40;;;;;;;7.13;97.94;99327.82;106265;1253;74803;-74
2023/01/20 05:43:57;;;;;;;22.30;10.10;;;;;;;7.16;97.89;99325.95;105689;1254;64572;-73
2023/01/20 05:46:23;;;;;;;22.80;9.90;;;;;;;7.19;97.71;99322.24;105268;1260;62633;-72
2023/01/20 05:48:50;;;;;;;25.10;10.70;;;;;;;7.13;97.79;99319.50;105442;1254;72340;-74
2023/01/20 05:51:17;;;;;;;19.10;9.30;;;;;;;7.07;97.79;99323.46;105512;1254;72118;-71
2023/01/20 05:53:44;;;;;;;19.60;9.00;;;;;;;7.08;97.64;99338.11;105523;1254;75064;-75
2023/01/20 05:56:14;;;;;;;22.00;10.30;;;;;;;7.10;97.63;99348.87;105487;1254;60827;-73
2023/01/20 05:58:41;;;;;;;23.20;10.40;;;;;;;7.03;97.98;99347.47;105575;1254;61937;-73
2023/01/20 06:01:11;;;;;;;21.20;9.10;;;;;;;6.97;97.95;99338.95;105464;1259;75343;-72
2023/01/20 06:03:38;;;;;;;21.00;9.10;;;;;;;7.02;98.12;99344.29;105320;1254;72630;-76
2023/01/20 06:06:06;;;;;;;22.90;10.90;;;;;;;7.02;98.02;99349.20;105856;1259;73628;-76
2023/01/20 06:08:34;;;;;;;22.40;9.40;;;;;;;6.95;98.28;99336.46;105625;1254;62471;-74
2023/01/20 06:11:01;;;;;;;21.70;9.80;;;;;;;6.95;98.15;99333.55;105493;1254;61231;-72
2023/01/20 06:13:27;;;;;;;19.80;9.20;;;;;;;6.99;98.03;99334.57;105628;1259;73189;-72
2023/01/20 06:15:55;;;;;;;25.60;9.70;;;;;;;6.95;98.28;99340.25;105669;1253;69474;-76
2023/01/20 06:18:22;;;;;;;18.40;9.60;;;;;;;6.88;98.42;99341.60;105615;1253;74841;-73
2023/01/20 06:20:49;;;;;;;21.80;9.00;;;;;;;6.92;98.39;99344.43;105477;1253;63992;-74
2023/01/20 06:23:16;;;;;;;25.50;9.90;;;;;;;6.91;98.41;99354.72;105567;1257;60811;-73
2023/01/20 06:25:43;;;;;;;19.70;8.90;;;;;;;6.85;98.53;99352.92;105711;1256;74969;-74
2023/01/20 06:28:10;;;;;;;23.20;9.70;;;;;;;6.88;98.60;99359.15;105539;1257;72665;-73
2023/01/20 06:30:37;;;;;;;18.10;9.70;;;;;;;6.89;98.53;99360.28;105539;1257;73191;-74
2023/01/20 06:33:09;;;;;;;23.60;10.30;;;;;;;6.85;98.75;99364.77;105608;1253;60574;-71
2023/01/20 06:35:36;;;;;;;19.60;9.90;;;;;;;6.85;98.78;99363.16;105865;1257;62176;-73
2023/01/20 06:38:03;;;;;;;22.30;10.50;;;;;;;6.93;98.26;99362.02;105907;1254;75709;-75
2023/01/20 06:40:30;;;;;;;20.30;10.90;;;;;;;6.93;98.33;99368.58;105807;1254;72156;-74
2023/01/20 06:42:57;;;;;;;24.20;9.60;;;;;;;6.88;98.20;99368.30;105749;1253;74884;-74
2023/01/20 06:45:24;;;;;;;26.30;9.90;;;;;;;6.92;98.06;99367.77;105710;1257;64106;-74
2023/01/20 06:47:54;;;;;;;20.90;9.60;;;;;;;6.98;97.94;99368.10;105192;1253;61003;-75
2023/01/20 06:50:21;;;;;;;24.00;9.90;;;;;;;6.95;98.07;99374.55;105572;1258;76266;-73
2023/01/20 06:52:49;;;;;;;24.00;9.30;;;;;;;6.91;98.18;99383.17;105343;1254;69787;-72
2023/01/20 06:55:16;;;;;;;18.60;9.00;;;;;;;6.97;97.95;99382.13;105504;1253;70614;-73
2023/01/20 06:57:43;;;;;;;19.60;9.50;;;;;;;7.01;97.78;99381.98;105455;1260;61438;-72
2023/01/20 07:00:11;;;;;;;24.00;12.00;;;;;;;6.98;97.77;99385.36;105440;1257;60890;-73
2023/01/20 07:02:38;;;;;;;24.80;11.40;;;;;;;6.94;97.79;99390.33;105502;1257;75710;-73
2023/01/20 07:05:07;;;;;;;22.80;11.20;;;;;;;7.00;97.64;99395.13;105436;1259;72095;-74
2023/01/20 07:07:34;;;;;;;20.40;10.70;;;;;;;7.04;97.34;99400.77;105554;1254;75052;-72
2023/01/20 07:10:02;;;;;;;28.30;12.60;;;;;;;6.96;97.14;99406.45;105396;1253;61582;-74
2023/01/20 07:12:29;;;;;;;23.90;10.30;;;;;;;6.90;97.35;99407.63;105628;1253;62315;-73
2023/01/20 07:14:55;;;;;;;23.10;9.40;;;;;;;6.93;97.28;99407.27;105416;1258;75731;-75
2023/01/20 07:17:22;;;;;;;19.10;10.70;;;;;;;6.97;97.17;99412.03;105409;1258;72264;-73
2023/01/20 07:19:49;;;;;;;25.20;12.20;;;;;;;6.94;97.36;99416.34;105246;1260;72291;-74
2023/01/20 07:22:18;;;;;;;22.20;12.00;;;;;;;6.91;97.68;99414.03;105512;1257;60535;-75
2023/01/20 07:24:45;;;;;;;23.20;13.00;;;;;;;6.94;97.51;99414.25;105798;1257;60475;-74
2023/01/20 07:27:13;;;;;;;19.40;9.90;;;;;;;7.02;97.19;99415.94;105889;1253;74140;-75
2023/01/20 07:29:40;;;;;;;22.90;10.30;;;;;;;7.02;96.91;99413.83;105724;1257;69530;-75
2023/01/20 07:32:07;;;;;;;21.00;10.10;;;;;;;6.96;96.77;99410.73;105444;1259;73811;-76
2023/01/20 07:34:34;;;;;;;23.50;10.70;;;;;;;6.97;96.91;99408.30;105542;1254;62255;-75
2023/01/20 07:37:01;;;;;;;21.60;10.60;;;;;;;7.02;96.79;99407.09;105508;1253;61105;-75
2023/01/20 07:39:28;;;;;;;24.30;11.20;;;;;;;6.99;96.98;99406.37;105468;1253;75221;-75
2023/01/20 07:41:55;;;;;;;22.80;10.70;;;;;;;6.97;96.99;99408.70;105737;1253;72459;-75
2023/01/20 07:44:22;;;;;;;21.60;10.70;;;;;;;7.04;96.75;99404.46;105495;1256;72981;-75
2023/01/20 07:46:50;;;;;;;21.10;10.20;;;;;;;7.10;96.38;99413.02;105491;1257;60460;-75
2023/01/20 07:49:17;;;;;;;25.20;11.70;;;;;;;7.07;96.37;99417.70;105473;1253;60532;-76
2023/01/20 07:51:44;;;;;;;19.80;11.20;;;;;;;7.02;96.73;99424.19;105605;1257;74887;-75
2023/01/20 07:54:11;;;;;;;24.00;9.60;;;;;;;7.05;96.52;99423.52;105446;1257;72157;-75
2023/01/20 07:56:37;;;;;;;20.10;11.30;;;;;;;7.12;96.15;99426.35;105487;1254;71843;-75
2023/01/20 07:59:04;;;;;;;21.00;10.50;;;;;;;7.12;96.15;99435.50;105537;1254;61229;-75
2023/01/20 08:01:31;;;;;;;24.20;11.00;;;;;;;7.09;96.23;99436.00;105512;1253;61512;-75
2023/01/20 08:03:59;;;;;;;23.90;9.90;;;;;;;7.07;96.13;99441.41;105601;1257;75854;-74
2023/01/20 08:06:26;;;;;;;18.20;9.90;;;;;;;7.14;95.86;99452.05;105607;1257;72369;-74
2023/01/20 08:08:54;;;;;;;22.60;11.60;;;;;;;7.16;95.93;99445.20;105433;1253;74786;-72
2023/01/20 08:11:24;;;;;;;32.40;13.10;;;;;;;7.13;95.93;99448.15;105425;1254;60673;-74
2023/01/20 08:13:51;;;;;;;21.60;10.60;;;;;;;7.13;96.07;99452.54;105851;1251;61311;-74
2023/01/20 08:16:18;;;;;;;25.20;11.70;;;;;;;7.22;96.03;99452.09;106873;1253;75789;-74
2023/01/20 08:18:45;;;;;;;24.80;11.60;;;;;;;7.30;95.57;99445.88;106592;1255;72705;-74
2023/01/20 08:21:18;;;;;;;19.20;10.70;;;;;;;7.28;95.53;99444.60;106364;1253;74679;-74
2023/01/20 08:23:44;;;;;;;23.00;9.70;;;;;;;7.25;95.35;99447.98;105858;1253;63132;-75
2023/01/20 08:26:11;;;;;;;19.10;10.60;;;;;;;7.29;95.22;99452.63;105482;1252;63100;-75
2023/01/20 08:28:38;;;;;;;25.80;11.10;;;;;;;7.34;94.79;99446.02;105578;1258;74667;-75
2023/01/20 08:31:07;;;;;;;21.40;11.50;;;;;;;7.30;95.21;99446.78;105593;1253;70725;-74
2023/01/20 08:33:34;;;;;;;21.70;10.40;;;;;;;7.28;95.50;99441.13;105869;1253;74902;-77
2023/01/20 08:36:12;;;;;;;18.90;10.30;;;;;;;7.38;95.15;99440.14;106473;1253;62165;-73
2023/01/20 08:38:40;;;;;;;22.90;10.50;;;;;;;7.47;94.88;99443.32;105605;1257;61563;-73
2023/01/20 08:41:08;;;;;;;19.20;11.30;;;;;;;7.47;94.90;99446.42;105483;1253;73696;-72
2023/01/20 08:43:35;;;;;;;20.70;10.70;;;;;;;7.49;95.00;99453.27;105581;1253;73092;-73
2023/01/20 08:46:05;;;;;;;27.10;10.50;;;;;;;7.60;94.32;99453.38;105496;1253;74795;-71
2023/01/20 08:48:33;;;;;;;23.20;11.90;;;;;;;7.69;94.20;99444.80;105654;1256;62495;-72
2023/01/20 08:51:06;;;;;;;26.00;12.60;;;;;;;7.68;94.05;99449.45;105556;1253;60784;-73
2023/01/20 08:53:33;;;;;;;23.50;10.50;;;;;;;7.67;94.25;99443.33;105550;1258;73500;-72
2023/01/20 08:56:01;;;;;;;20.40;9.60;;;;;;;7.75;93.83;99437.81;105380;1253;72374;-72
2023/01/20 08:58:28;;;;;;;19.60;10.30;;;;;;;7.83;93.46;99436.63;105344;1260;74735;-73
2023/01/20 09:00:55;;;;;;;19.90;11.00;;;;;;;7.83;93.47;99438.20;105580;1253;62517;-73
2023/01/20 09:03:22;;;;;;;23.50;10.80;;;;;;;7.78;93.37;99438.50;105560;1253;61444;-73
2023/01/20 09:05:49;;;;;;;20.30;9.40;;;;;;;7.76;93.25;99436.70;105504;1253;76116;-73
2023/01/20 09:08:16;;;;;;;22.70;10.30;;;;;;;7.81;93.22;99441.23;105420;1260;71112;-73
2023/01/20 09:10:44;;;;;;;15.60;10.70;;;;;;;7.83;93.31;99439.48;105398;1254;73047;-71
2023/01/20 09:13:11;;;;;;;22.40;12.70;;;;;;;7.79;93.29;99437.23;105624;1253;60334;-72
2023/01/20 09:15:38;;;;;;;21.20;10.50;;;;;;;7.77;93.67;99442.55;105368;1257;62194;-74
2023/01/20 09:18:05;;;;;;;18.30;10.90;;;;;;;7.85;93.35;99438.49;105633;1253;72836;-72
2023/01/20 09:20:33;;;;;;;21.20;11.10;;;;;;;7.91;92.78;99441.44;105675;1257;71030;-72
2023/01/20 09:23:01;;;;;;;21.10;12.10;;;;;;;7.87;93.30;99442.73;105555;1257;71926;-73
2023/01/20 09:25:28;;;;;;;20.70;11.20;;;;;;;7.83;93.52;99442.02;105526;1258;60410;-74
2023/01/20 09:27:59;;;;;;;21.80;10.80;;;;;;;7.88;93.55;99438.98;105380;1260;61934;-76
2023/01/20 09:30:26;;;;;;;22.70;11.50;;;;;;;7.98;93.41;99438.99;105473;1257;76128;-73
2023/01/20 09:32:55;;;;;;;27.50;12.80;;;;;;;7.98;93.31;99442.59;105658;1253;71207;-72
2023/01/20 09:35:22;;;;;;;22.70;11.90;;;;;;;7.94;93.18;99441.67;105514;1253;72548;-77
2023/01/20 09:44:08;;;;;;;18.80;11.60;;;;;;;8.14;93.38;99452.39;107272;1253;75649;-78
2023/01/20 09:53:15;;;;;;;23.90;13.00;;;;;;;8.34;92.74;99451.98;106192;1253;61164;-79
2023/01/20 09:55:58;;;;;;;29.20;14.20;;;;;;;8.35;92.65;99448.21;106372;1253;60445;-79
2023/01/20 09:58:47;;;;;;;24.10;14.50;;;;;;;8.33;92.73;99450.50;106069;1253;73671;-77
2023/01/20 10:01:23;;;;;;;20.60;10.80;;;;;;;8.37;92.70;99456.63;105623;1256;70331;-76
2023/01/20 10:03:55;;;;;;;22.40;11.20;;;;;;;8.47;92.12;99458.19;105630;1253;74665;-76
2023/01/20 10:06:30;;;;;;;19.00;11.00;;;;;;;8.50;91.90;99460.46;105459;1257;61140;-76
2023/01/20 10:09:01;;;;;;;19.00;11.00;;;;;;;8.47;91.90;99461.61;105911;1252;61101;-74
2023/01/20 10:11:38;;;;;;;21.70;11.00;;;;;;;8.45;92.14;99462.85;105432;1253;75900;-76
2023/01/20 10:14:17;;;;;;;19.00;10.60;;;;;;;8.52;91.74;99465.65;105401;1254;72240;-78
2023/01/20 10:16:53;;;;;;;22.40;10.80;;;;;;;8.59;91.87;99464.01;105639;1257;74749;-76
2023/01/20 10:20:02;;;;;;;20.60;11.60;;;;;;;8.59;91.77;99458.45;105551;1257;61472;-77
2023/01/20 10:22:36;;;;;;;25.70;11.20;;;;;;;8.57;91.83;99447.50;105710;1254;60338;-77
2023/01/20 10:25:11;;;;;;;21.50;11.50;;;;;;;8.61;91.73;99444.93;105557;1253;75204;-77
2023/01/20 10:27:42;;;;;;;19.10;10.60;;;;;;;8.77;91.61;99443.61;105550;1253;70615;-78
2023/01/20 10:30:10;;;;;;;21.90;11.20;;;;;;;8.85;91.05;99442.39;105377;1256;74862;-76
2023/01/20 10:32:39;;;;;;;21.90;12.20;;;;;;;8.86;91.55;99444.98;105843;1258;61117;-76
2023/01/20 10:35:14;;;;;;;21.60;10.30;;;;;;;8.87;91.14;99447.10;105772;1253;60523;-77
2023/01/20 10:37:41;;;;;;;21.50;10.60;;;;;;;8.98;90.78;99446.48;105602;1253;74514;-77
2023/01/20 10:40:15;;;;;;;19.10;11.10;;;;;;;9.09;90.58;99452.91;105533;1257;71363;-78
2023/01/20 10:42:47;;;;;;;;;;;;;;;9.13;90.99;99449.45;105693;1253;74662;-76
2023/01/20 10:45:21;;;;;;;21.50;10.90;;;;;;;9.16;90.37;99446.08;105718;1257;60732;-77
2023/01/20 10:48:08;;;;;;;20.00;10.50;;;;;;;9.23;90.39;99441.88;105682;1252;60461;-77
2023/01/20 10:50:45;;;;;;;14.60;9.30;;;;;;;9.48;90.18;99439.89;105893;1257;76957;-74
2023/01/20 10:53:34;;;;;;;21.30;11.20;;;;;;;9.66;89.69;99447.94;106010;1256;70022;-71
2023/01/20 10:56:25;;;;;;;21.70;11.00;;;;;;;9.78;89.34;99444.63;105628;1254;73675;-73
2023/01/20 10:58:51;;;;;;;19.90;11.80;;;;;;;9.91;88.61;99445.56;105472;1253;60609;-74
2023/01/20 11:01:18;;;;;;;19.90;9.10;;;;;;;10.04;87.92;99443.38;105473;1253;60486;-74
2023/01/20 11:03:46;;;;;;;17.40;8.90;;;;;;;10.29;87.29;99439.50;105444;1253;74656;-74
2023/01/20 11:06:21;;;;;;;17.90;10.00;;;;;;;10.51;86.63;99442.36;105647;1253;72207;-75
2023/01/20 11:08:48;;;;;;;28.60;12.40;;;;;;;10.60;86.29;99443.05;105636;1253;74865;-74
2023/01/20 11:11:18;;;;;;;15.90;9.50;;;;;;;10.65;85.67;99446.25;105502;1253;62347;-75
2023/01/20 11:13:45;;;;;;;23.60;11.20;;;;;;;10.64;85.12;99447.06;105626;1257;60471;-74
2023/01/20 11:16:16;;;;;;;12.00;9.40;;;;;;;10.62;84.76;99450.42;105579;1257;74643;-74
2023/01/20 11:18:56;;;;;;;22.30;9.50;;;;;;;10.68;84.30;99452.28;105375;1253;71321;-73
2023/01/20 11:21:24;;;;;;;20.00;10.10;;;;;;;10.73;84.34;99457.02;105340;1255;74790;-75
2023/01/20 11:23:51;;;;;;;20.70;11.30;;;;;;;10.70;84.09;99463.89;105764;1254;61326;-74
2023/01/20 11:26:28;;;;;;;20.30;11.40;;;;;;;10.64;84.16;99465.12;105580;1257;62134;-74
2023/01/20 11:29:08;;;;;;;17.40;9.40;;;;;;;10.60;84.16;99466.08;105358;1255;74159;-73
2023/01/20 11:31:39;;;;;;;18.90;9.80;;;;;;;10.71;84.19;99468.11;105492;1258;72240;-74
2023/01/20 11:34:20;;;;;;;23.70;10.50;;;;;;;10.78;84.19;99461.54;105577;1257;71342;-74
2023/01/20 11:36:48;;;;;;;20.00;10.70;;;;;;;10.88;84.33;99461.05;105590;1253;62802;-75
2023/01/20 11:39:35;;;;;;;19.30;10.90;;;;;;;10.96;84.01;99460.05;105541;1257;61787;-75
2023/01/20 11:42:15;;;;;;;22.80;9.30;;;;;;;11.10;83.54;99466.27;105528;1253;75463;-74
2023/01/20 11:44:46;;;;;;;18.20;9.20;;;;;;;11.28;82.89;99467.55;105530;1254;69606;-74
2023/01/20 11:47:32;;;;;;;21.30;9.70;;;;;;;11.37;82.80;99471.02;105462;1258;71506;-74
2023/01/20 11:50:02;;;;;;;18.10;9.80;;;;;;;11.43;82.36;99466.89;105900;1253;61334;-75